sensor_id;sensor_type;location;lat;lon;timestamp;temperature;humidity
23188;DHT22;11762;59.878;17.686;2023-03-16T00:00:00;-2.70;99.90
23188;DHT22;11762;59.878;17.686;2023-03-16T00:02:27;-2.70;99.90
23188;DHT22;11762;59.878;17.686;2023-03-16T00:04:54;-2.80;99.90
23188;DHT22;11762;59.878;17.686;2023-03-16T00:07:23;-2.80;99.90
23188;DHT22;11762;59.878;17.686;2023-03-16T00:09:50;-2.80;99.90
23188;DHT22;11762;59.878;17.686;2023-03-16T00:12:18;-2.80;99.90
23188;DHT22;11762;59.878;17.686;2023-03-16T00:14:48;-2.80;99.90
23188;DHT22;11762;59.878;17.686;2023-03-16T00:17:16;-2.90;99.90
23188;DHT22;11762;59.878;17.686;2023-03-16T00:19:45;-2.90;99.90
23188;DHT22;11762;59.878;17.686;2023-03-16T00:22:13;-2.90;99.90
23188;DHT22;11762;59.878;17.686;2023-03-16T00:24:42;-2.90;99.90
23188;DHT22;11762;59.878;17.686;2023-03-16T00:27:10;-2.90;99.90
23188;DHT22;11762;59.878;17.686;2023-03-16T00:29:40;-2.90;99.90
23188;DHT22;11762;59.878;17.686;2023-03-16T00:32:13;-3.00;99.90
23188;DHT22;11762;59.878;17.686;2023-03-16T00:34:41;-3.00;99.90
23188;DHT22;11762;59.878;17.686;2023-03-16T00:37:08;-3.00;99.90
23188;DHT22;11762;59.878;17.686;2023-03-16T00:39:35;-3.00;99.90
23188;DHT22;11762;59.878;17.686;2023-03-16T00:42:03;-3.10;99.90
23188;DHT22;11762;59.878;17.686;2023-03-16T00:44:30;-3.10;99.90
23188;DHT22;11762;59.878;17.686;2023-03-16T00:46:58;-3.10;99.90
23188;DHT22;11762;59.878;17.686;2023-03-16T00:49:26;-3.10;99.90
23188;DHT22;11762;59.878;17.686;2023-03-16T00:51:53;-3.10;99.90
23188;DHT22;11762;59.878;17.686;2023-03-16T00:54:20;-3.10;99.90
23188;DHT22;11762;59.878;17.686;2023-03-16T06:39:23;2.40;99.90
23188;DHT22;11762;59.878;17.686;2023-03-16T06:41:51;2.00;99.90
23188;DHT22;11762;59.878;17.686;2023-03-16T06:44:18;1.90;99.90
23188;DHT22;11762;59.878;17.686;2023-03-16T06:46:46;1.40;99.90
23188;DHT22;11762;59.878;17.686;2023-03-16T06:49:13;1.30;99.90
23188;DHT22;11762;59.878;17.686;2023-03-16T06:51:39;0.70;99.90
23188;DHT22;11762;59.878;17.686;2023-03-16T06:54:07;0.20;99.90
23188;DHT22;11762;59.878;17.686;2023-03-16T06:56:36;-0.30;99.90
23188;DHT22;11762;59.878;17.686;2023-03-16T06:59:03;-0.80;99.90
23188;DHT22;11762;59.878;17.686;2023-03-16T07:01:30;-1.10;99.90
23188;DHT22;11762;59.878;17.686;2023-03-16T07:03:57;-1.20;99.90
23188;DHT22;11762;59.878;17.686;2023-03-16T07:06:24;-1.30;99.90
23188;DHT22;11762;59.878;17.686;2023-03-16T07:08:51;-1.50;99.90
23188;DHT22;11762;59.878;17.686;2023-03-16T07:11:18;-1.60;99.90
23188;DHT22;11762;59.878;17.686;2023-03-16T07:13:46;-1.60;99.90
23188;DHT22;11762;59.878;17.686;2023-03-16T07:16:14;-1.60;99.90
23188;DHT22;11762;59.878;17.686;2023-03-16T07:18:41;-1.60;99.90
23188;DHT22;11762;59.878;17.686;2023-03-16T07:21:09;-1.50;99.90
23188;DHT22;11762;59.878;17.686;2023-03-16T07:23:36;-1.50;99.90
23188;DHT22;11762;59.878;17.686;2023-03-16T07:26:03;-1.60;99.90
23188;DHT22;11762;59.878;17.686;2023-03-16T07:28:32;-1.70;99.90
23188;DHT22;11762;59.878;17.686;2023-03-16T07:31:01;-1.70;99.90
23188;DHT22;11762;59.878;17.686;2023-03-16T07:33:29;-1.60;99.90
23188;DHT22;11762;59.878;17.686;2023-03-16T07:35:56;-1.60;99.90
23188;DHT22;11762;59.878;17.686;2023-03-16T07:38:23;-1.50;99.90
23188;DHT22;11762;59.878;17.686;2023-03-16T07:40:50;-1.40;99.90
23188;DHT22;11762;59.878;17.686;2023-03-16T07:43:17;-1.30;99.90
23188;DHT22;11762;59.878;17.686;2023-03-16T07:45:47;-1.10;99.90
23188;DHT22;11762;59.878;17.686;2023-03-16T07:48:16;-1.20;99.90
23188;DHT22;11762;59.878;17.686;2023-03-16T07:50:43;-1.20;99.90
23188;DHT22;11762;59.878;17.686;2023-03-16T07:53:10;-1.10;99.90
23188;DHT22;11762;59.878;17.686;2023-03-16T07:55:39;-1.00;99.90
23188;DHT22;11762;59.878;17.686;2023-03-16T07:58:06;-0.90;99.90
23188;DHT22;11762;59.878;17.686;2023-03-16T08:00:35;-0.90;99.90
23188;DHT22;11762;59.878;17.686;2023-03-16T08:03:02;-0.80;99.90
23188;DHT22;11762;59.878;17.686;2023-03-16T08:05:31;-0.80;99.90
23188;DHT22;11762;59.878;17.686;2023-03-16T08:07:58;-0.80;99.90
23188;DHT22;11762;59.878;17.686;2023-03-16T08:10:26;-0.80;99.90
23188;DHT22;11762;59.878;17.686;2023-03-16T08:12:53;-0.70;99.90
23188;DHT22;11762;59.878;17.686;2023-03-16T08:15:20;-0.70;99.90
23188;DHT22;11762;59.878;17.686;2023-03-16T08:17:47;-0.70;99.90
23188;DHT22;11762;59.878;17.686;2023-03-16T08:20:14;-0.60;99.90
23188;DHT22;11762;59.878;17.686;2023-03-16T08:22:42;-0.60;99.90
23188;DHT22;11762;59.878;17.686;2023-03-16T08:25:11;-0.60;99.90
23188;DHT22;11762;59.878;17.686;2023-03-16T08:27:38;-0.60;99.90
23188;DHT22;11762;59.878;17.686;2023-03-16T08:30:08;-0.50;99.90
23188;DHT22;11762;59.878;17.686;2023-03-16T08:32:36;-0.50;99.90
23188;DHT22;11762;59.878;17.686;2023-03-16T08:35:05;-0.50;99.90
23188;DHT22;11762;59.878;17.686;2023-03-16T08:37:32;-0.50;99.90
23188;DHT22;11762;59.878;17.686;2023-03-16T08:40:01;-0.50;99.90
23188;DHT22;11762;59.878;17.686;2023-03-16T08:42:28;-0.50;99.90
23188;DHT22;11762;59.878;17.686;2023-03-16T08:44:56;-0.30;99.90
23188;DHT22;11762;59.878;17.686;2023-03-16T08:47:25;-0.20;99.90
23188;DHT22;11762;59.878;17.686;2023-03-16T08:49:52;-0.20;99.90
23188;DHT22;11762;59.878;17.686;2023-03-16T08:52:19;-0.10;99.90
23188;DHT22;11762;59.878;17.686;2023-03-16T08:54:46;-0.10;99.90
23188;DHT22;11762;59.878;17.686;2023-03-16T08:57:15;0.00;99.90
23188;DHT22;11762;59.878;17.686;2023-03-16T08:59:42;0.00;99.90
23188;DHT22;11762;59.878;17.686;2023-03-16T09:02:11;0.10;99.90
23188;DHT22;11762;59.878;17.686;2023-03-16T09:04:38;0.10;99.90
23188;DHT22;11762;59.878;17.686;2023-03-16T09:07:05;0.20;99.90
23188;DHT22;11762;59.878;17.686;2023-03-16T09:09:33;0.10;99.90
23188;DHT22;11762;59.878;17.686;2023-03-16T09:12:01;0.10;99.90
23188;DHT22;11762;59.878;17.686;2023-03-16T09:14:30;0.20;99.90
23188;DHT22;11762;59.878;17.686;2023-03-16T09:16:58;0.20;99.90
23188;DHT22;11762;59.878;17.686;2023-03-16T09:19:25;0.20;99.90
23188;DHT22;11762;59.878;17.686;2023-03-16T09:21:52;0.30;99.90
23188;DHT22;11762;59.878;17.686;2023-03-16T09:24:19;0.30;99.90
23188;DHT22;11762;59.878;17.686;2023-03-16T09:26:47;0.30;99.90
23188;DHT22;11762;59.878;17.686;2023-03-16T09:29:15;0.40;99.90
23188;DHT22;11762;59.878;17.686;2023-03-16T09:31:44;0.50;99.90
23188;DHT22;11762;59.878;17.686;2023-03-16T09:34:11;0.50;99.90
23188;DHT22;11762;59.878;17.686;2023-03-16T09:36:39;0.50;99.90
23188;DHT22;11762;59.878;17.686;2023-03-16T09:39:06;0.60;99.90
23188;DHT22;11762;59.878;17.686;2023-03-16T09:41:41;0.60;99.90
23188;DHT22;11762;59.878;17.686;2023-03-16T09:44:22;0.70;99.90
23188;DHT22;11762;59.878;17.686;2023-03-16T09:46:55;0.80;99.90
23188;DHT22;11762;59.878;17.686;2023-03-16T09:49:27;0.80;99.90
23188;DHT22;11762;59.878;17.686;2023-03-16T09:52:05;0.80;99.90
23188;DHT22;11762;59.878;17.686;2023-03-16T09:54:40;0.90;99.90
23188;DHT22;11762;59.878;17.686;2023-03-16T09:57:16;1.00;99.90
23188;DHT22;11762;59.878;17.686;2023-03-16T09:59:45;1.00;99.90
23188;DHT22;11762;59.878;17.686;2023-03-16T10:02:38;1.00;99.90
23188;DHT22;11762;59.878;17.686;2023-03-16T10:05:11;1.10;99.90
23188;DHT22;11762;59.878;17.686;2023-03-16T10:07:46;1.20;99.90
23188;DHT22;11762;59.878;17.686;2023-03-16T10:10:27;1.20;99.90
23188;DHT22;11762;59.878;17.686;2023-03-16T10:12:59;1.30;99.90
23188;DHT22;11762;59.878;17.686;2023-03-16T10:15:29;1.40;99.90
23188;DHT22;11762;59.878;17.686;2023-03-16T10:18:02;1.30;99.90
23188;DHT22;11762;59.878;17.686;2023-03-16T10:20:33;1.30;99.90
23188;DHT22;11762;59.878;17.686;2023-03-16T10:23:12;1.40;99.90
23188;DHT22;11762;59.878;17.686;2023-03-16T10:25:44;1.50;99.90
23188;DHT22;11762;59.878;17.686;2023-03-16T10:28:14;1.50;99.90
23188;DHT22;11762;59.878;17.686;2023-03-16T10:30:42;1.50;99.90
23188;DHT22;11762;59.878;17.686;2023-03-16T10:33:19;1.50;99.90
23188;DHT22;11762;59.878;17.686;2023-03-16T10:35:51;1.50;99.90
23188;DHT22;11762;59.878;17.686;2023-03-16T10:38:29;1.40;99.90
23188;DHT22;11762;59.878;17.686;2023-03-16T10:40:59;1.50;99.90
23188;DHT22;11762;59.878;17.686;2023-03-16T10:43:27;1.50;99.90
23188;DHT22;11762;59.878;17.686;2023-03-16T10:46:00;1.60;99.90
23188;DHT22;11762;59.878;17.686;2023-03-16T10:48:31;1.70;99.90
23188;DHT22;11762;59.878;17.686;2023-03-16T10:50:59;1.70;99.90
23188;DHT22;11762;59.878;17.686;2023-03-16T10:53:30;1.70;99.90
23188;DHT22;11762;59.878;17.686;2023-03-16T10:56:01;1.80;99.90
23188;DHT22;11762;59.878;17.686;2023-03-16T10:58:39;1.80;99.90
23188;DHT22;11762;59.878;17.686;2023-03-16T11:01:09;1.80;99.90
23188;DHT22;11762;59.878;17.686;2023-03-16T11:03:40;1.70;99.90
23188;DHT22;11762;59.878;17.686;2023-03-16T11:06:18;1.80;99.90
23188;DHT22;11762;59.878;17.686;2023-03-16T11:08:46;1.80;99.90
23188;DHT22;11762;59.878;17.686;2023-03-16T11:11:16;1.90;99.90
23188;DHT22;11762;59.878;17.686;2023-03-16T11:13:46;2.00;99.90
23188;DHT22;11762;59.878;17.686;2023-03-16T11:16:21;2.00;99.90
23188;DHT22;11762;59.878;17.686;2023-03-16T11:18:54;2.00;99.90
23188;DHT22;11762;59.878;17.686;2023-03-16T11:21:37;1.90;99.90
23188;DHT22;11762;59.878;17.686;2023-03-16T11:24:15;1.90;99.90
23188;DHT22;11762;59.878;17.686;2023-03-16T11:26:48;2.10;99.90
23188;DHT22;11762;59.878;17.686;2023-03-16T11:29:24;2.20;99.90
23188;DHT22;11762;59.878;17.686;2023-03-16T11:31:54;2.20;99.90
23188;DHT22;11762;59.878;17.686;2023-03-16T11:34:28;2.20;99.90
23188;DHT22;11762;59.878;17.686;2023-03-16T11:36:58;2.30;99.90
23188;DHT22;11762;59.878;17.686;2023-03-16T11:39:32;2.30;99.90
23188;DHT22;11762;59.878;17.686;2023-03-16T11:42:32;2.20;99.90
23188;DHT22;11762;59.878;17.686;2023-03-16T11:45:13;2.30;99.90
23188;DHT22;11762;59.878;17.686;2023-03-16T11:48:01;2.40;99.90
23188;DHT22;11762;59.878;17.686;2023-03-16T11:50:36;2.50;99.90
23188;DHT22;11762;59.878;17.686;2023-03-16T11:53:15;2.60;99.90
23188;DHT22;11762;59.878;17.686;2023-03-16T11:55:52;2.60;99.90
23188;DHT22;11762;59.878;17.686;2023-03-16T11:58:33;2.70;99.90
23188;DHT22;11762;59.878;17.686;2023-03-16T12:01:08;2.80;99.90
23188;DHT22;11762;59.878;17.686;2023-03-16T12:03:52;2.90;99.90
23188;DHT22;11762;59.878;17.686;2023-03-16T12:06:32;3.00;99.90
23188;DHT22;11762;59.878;17.686;2023-03-16T12:12:22;3.00;99.90
23188;DHT22;11762;59.878;17.686;2023-03-16T12:15:01;3.00;99.90
23188;DHT22;11762;59.878;17.686;2023-03-16T12:17:31;3.00;99.90
23188;DHT22;11762;59.878;17.686;2023-03-16T12:20:04;3.00;99.90
23188;DHT22;11762;59.878;17.686;2023-03-16T12:22:41;3.00;99.90
23188;DHT22;11762;59.878;17.686;2023-03-16T12:25:16;2.90;99.90
23188;DHT22;11762;59.878;17.686;2023-03-16T12:27:46;2.80;99.90
23188;DHT22;11762;59.878;17.686;2023-03-16T12:30:26;2.80;99.90
23188;DHT22;11762;59.878;17.686;2023-03-16T12:35:35;2.90;99.90
23188;DHT22;11762;59.878;17.686;2023-03-16T12:38:28;3.00;99.90
23188;DHT22;11762;59.878;17.686;2023-03-16T12:41:10;2.90;99.90
23188;DHT22;11762;59.878;17.686;2023-03-16T12:43:48;2.90;99.90
23188;DHT22;11762;59.878;17.686;2023-03-16T12:46:25;2.90;99.90
23188;DHT22;11762;59.878;17.686;2023-03-16T12:48:56;3.00;99.90
23188;DHT22;11762;59.878;17.686;2023-03-16T12:51:35;3.00;99.90
23188;DHT22;11762;59.878;17.686;2023-03-16T12:54:04;3.00;99.90
23188;DHT22;11762;59.878;17.686;2023-03-16T12:56:33;3.10;99.90
23188;DHT22;11762;59.878;17.686;2023-03-16T12:59:02;3.10;99.90
23188;DHT22;11762;59.878;17.686;2023-03-16T13:01:37;3.10;99.90
23188;DHT22;11762;59.878;17.686;2023-03-16T13:04:09;3.10;99.90
23188;DHT22;11762;59.878;17.686;2023-03-16T13:06:42;3.30;99.90
23188;DHT22;11762;59.878;17.686;2023-03-16T13:09:11;3.30;99.90
23188;DHT22;11762;59.878;17.686;2023-03-16T13:11:44;3.20;99.90
23188;DHT22;11762;59.878;17.686;2023-03-16T13:14:16;3.20;99.90
23188;DHT22;11762;59.878;17.686;2023-03-16T13:17:03;3.10;99.90
23188;DHT22;11762;59.878;17.686;2023-03-16T13:19:31;3.20;99.90
23188;DHT22;11762;59.878;17.686;2023-03-16T13:22:17;3.30;99.90
23188;DHT22;11762;59.878;17.686;2023-03-16T13:24:52;3.40;99.90
23188;DHT22;11762;59.878;17.686;2023-03-16T13:27:22;3.40;99.90
23188;DHT22;11762;59.878;17.686;2023-03-16T13:29:55;3.40;99.90
23188;DHT22;11762;59.878;17.686;2023-03-16T13:32:25;3.30;99.90
23188;DHT22;11762;59.878;17.686;2023-03-16T13:34:57;3.40;99.90
23188;DHT22;11762;59.878;17.686;2023-03-16T13:37:27;3.30;99.90
23188;DHT22;11762;59.878;17.686;2023-03-16T13:39:57;3.40;99.90
23188;DHT22;11762;59.878;17.686;2023-03-16T13:42:25;3.40;99.90
23188;DHT22;11762;59.878;17.686;2023-03-16T13:44:55;3.40;99.90
23188;DHT22;11762;59.878;17.686;2023-03-16T13:47:24;3.40;99.90
23188;DHT22;11762;59.878;17.686;2023-03-16T13:49:55;3.40;99.90
23188;DHT22;11762;59.878;17.686;2023-03-16T13:52:25;3.30;99.90
23188;DHT22;11762;59.878;17.686;2023-03-16T13:54:53;3.40;99.90
23188;DHT22;11762;59.878;17.686;2023-03-16T13:57:25;3.40;99.90
23188;DHT22;11762;59.878;17.686;2023-03-16T14:00:01;3.40;99.90
23188;DHT22;11762;59.878;17.686;2023-03-16T14:02:35;3.50;99.90
23188;DHT22;11762;59.878;17.686;2023-03-16T14:05:10;3.50;99.90
23188;DHT22;11762;59.878;17.686;2023-03-16T14:07:38;3.50;99.90
23188;DHT22;11762;59.878;17.686;2023-03-16T14:10:07;3.40;99.90
23188;DHT22;11762;59.878;17.686;2023-03-16T14:12:36;3.40;99.90
23188;DHT22;11762;59.878;17.686;2023-03-16T14:15:06;3.30;99.90
23188;DHT22;11762;59.878;17.686;2023-03-16T14:17:34;3.30;99.90
23188;DHT22;11762;59.878;17.686;2023-03-16T14:20:02;3.30;99.90
23188;DHT22;11762;59.878;17.686;2023-03-16T14:22:32;3.40;99.90
23188;DHT22;11762;59.878;17.686;2023-03-16T14:25:01;3.40;99.90
23188;DHT22;11762;59.878;17.686;2023-03-16T14:27:40;3.50;99.90
23188;DHT22;11762;59.878;17.686;2023-03-16T14:30:16;3.50;99.90
23188;DHT22;11762;59.878;17.686;2023-03-16T14:32:54;3.50;99.90
23188;DHT22;11762;59.878;17.686;2023-03-16T14:35:25;3.60;99.90
23188;DHT22;11762;59.878;17.686;2023-03-16T14:37:53;3.50;99.90
23188;DHT22;11762;59.878;17.686;2023-03-16T14:40:24;3.40;99.90
23188;DHT22;11762;59.878;17.686;2023-03-16T14:42:52;3.50;99.90
23188;DHT22;11762;59.878;17.686;2023-03-16T14:45:23;3.50;99.90
23188;DHT22;11762;59.878;17.686;2023-03-16T14:47:52;3.50;99.90
23188;DHT22;11762;59.878;17.686;2023-03-16T14:50:23;3.50;99.90
23188;DHT22;11762;59.878;17.686;2023-03-16T14:52:53;3.50;99.90
23188;DHT22;11762;59.878;17.686;2023-03-16T14:55:20;3.50;99.90
23188;DHT22;11762;59.878;17.686;2023-03-16T14:57:49;3.60;99.90
23188;DHT22;11762;59.878;17.686;2023-03-16T15:00:19;3.60;99.90
23188;DHT22;11762;59.878;17.686;2023-03-16T15:02:56;3.60;99.90
23188;DHT22;11762;59.878;17.686;2023-03-16T15:05:29;3.60;99.90
23188;DHT22;11762;59.878;17.686;2023-03-16T15:07:57;3.60;99.90
23188;DHT22;11762;59.878;17.686;2023-03-16T15:10:26;3.50;99.90
23188;DHT22;11762;59.878;17.686;2023-03-16T15:12:53;3.50;99.90
23188;DHT22;11762;59.878;17.686;2023-03-16T15:15:29;3.50;99.90
23188;DHT22;11762;59.878;17.686;2023-03-16T15:17:58;3.40;99.90
23188;DHT22;11762;59.878;17.686;2023-03-16T15:20:29;3.40;99.90
23188;DHT22;11762;59.878;17.686;2023-03-16T15:22:59;3.40;99.90
23188;DHT22;11762;59.878;17.686;2023-03-16T15:25:32;3.30;99.90
23188;DHT22;11762;59.878;17.686;2023-03-16T15:28:02;3.30;99.90
23188;DHT22;11762;59.878;17.686;2023-03-16T15:30:30;3.40;99.90
23188;DHT22;11762;59.878;17.686;2023-03-16T15:32:58;3.30;99.90
23188;DHT22;11762;59.878;17.686;2023-03-16T15:35:26;3.30;99.90
23188;DHT22;11762;59.878;17.686;2023-03-16T15:37:53;3.30;99.90
23188;DHT22;11762;59.878;17.686;2023-03-16T15:40:22;3.30;99.90
23188;DHT22;11762;59.878;17.686;2023-03-16T15:42:51;3.20;99.90
23188;DHT22;11762;59.878;17.686;2023-03-16T15:45:20;3.20;99.90
23188;DHT22;11762;59.878;17.686;2023-03-16T15:47:48;3.10;99.90
23188;DHT22;11762;59.878;17.686;2023-03-16T15:50:18;3.10;99.90
23188;DHT22;11762;59.878;17.686;2023-03-16T15:52:48;3.10;99.90
23188;DHT22;11762;59.878;17.686;2023-03-16T15:55:19;3.00;99.90
23188;DHT22;11762;59.878;17.686;2023-03-16T15:57:47;3.00;99.90
23188;DHT22;11762;59.878;17.686;2023-03-16T16:00:27;2.90;99.90
23188;DHT22;11762;59.878;17.686;2023-03-16T16:02:56;2.90;99.90
23188;DHT22;11762;59.878;17.686;2023-03-16T16:05:25;2.90;99.90
23188;DHT22;11762;59.878;17.686;2023-03-16T16:07:52;2.90;99.90
23188;DHT22;11762;59.878;17.686;2023-03-16T16:10:20;2.80;99.90
23188;DHT22;11762;59.878;17.686;2023-03-16T16:12:49;2.80;99.90
23188;DHT22;11762;59.878;17.686;2023-03-16T16:15:21;2.70;99.90
23188;DHT22;11762;59.878;17.686;2023-03-16T16:17:50;2.50;99.90
23188;DHT22;11762;59.878;17.686;2023-03-16T16:20:20;2.30;99.90
23188;DHT22;11762;59.878;17.686;2023-03-16T16:22:49;2.10;99.90
23188;DHT22;11762;59.878;17.686;2023-03-16T16:25:18;2.10;99.90
23188;DHT22;11762;59.878;17.686;2023-03-16T16:27:45;2.00;99.90
23188;DHT22;11762;59.878;17.686;2023-03-16T16:30:21;2.00;99.90
23188;DHT22;11762;59.878;17.686;2023-03-16T16:32:49;2.00;99.90
23188;DHT22;11762;59.878;17.686;2023-03-16T16:35:18;2.00;99.90
23188;DHT22;11762;59.878;17.686;2023-03-16T16:37:45;1.90;99.90
23188;DHT22;11762;59.878;17.686;2023-03-16T16:40:16;1.90;99.90
23188;DHT22;11762;59.878;17.686;2023-03-16T16:42:44;1.80;99.90
23188;DHT22;11762;59.878;17.686;2023-03-16T16:45:18;1.80;99.90
23188;DHT22;11762;59.878;17.686;2023-03-16T16:47:47;1.80;99.90
23188;DHT22;11762;59.878;17.686;2023-03-16T16:50:19;1.70;99.90
23188;DHT22;11762;59.878;17.686;2023-03-16T16:52:47;1.60;99.90
23188;DHT22;11762;59.878;17.686;2023-03-16T16:55:16;1.60;99.90
23188;DHT22;11762;59.878;17.686;2023-03-16T16:57:44;1.50;99.90
23188;DHT22;11762;59.878;17.686;2023-03-16T17:00:18;1.40;99.90
23188;DHT22;11762;59.878;17.686;2023-03-16T17:02:47;1.30;99.90
23188;DHT22;11762;59.878;17.686;2023-03-16T17:05:17;1.30;99.90
23188;DHT22;11762;59.878;17.686;2023-03-16T17:07:45;1.20;99.90
23188;DHT22;11762;59.878;17.686;2023-03-16T17:10:16;1.10;99.90
23188;DHT22;11762;59.878;17.686;2023-03-16T17:12:44;1.10;99.90
23188;DHT22;11762;59.878;17.686;2023-03-16T17:15:20;1.00;99.90
23188;DHT22;11762;59.878;17.686;2023-03-16T17:17:48;1.00;99.90
23188;DHT22;11762;59.878;17.686;2023-03-16T17:20:17;1.00;99.90
23188;DHT22;11762;59.878;17.686;2023-03-16T17:22:46;0.90;99.90
23188;DHT22;11762;59.878;17.686;2023-03-16T17:25:15;0.80;99.90
23188;DHT22;11762;59.878;17.686;2023-03-16T17:27:45;0.60;99.90
23188;DHT22;11762;59.878;17.686;2023-03-16T17:30:25;0.30;99.90
23188;DHT22;11762;59.878;17.686;2023-03-16T17:32:53;0.10;99.90
23188;DHT22;11762;59.878;17.686;2023-03-16T17:35:21;0.00;99.90
23188;DHT22;11762;59.878;17.686;2023-03-16T17:37:48;-0.10;99.90
23188;DHT22;11762;59.878;17.686;2023-03-16T17:40:19;-0.30;99.90
23188;DHT22;11762;59.878;17.686;2023-03-16T17:42:48;-0.30;99.90
23188;DHT22;11762;59.878;17.686;2023-03-16T17:45:17;-0.30;99.90
23188;DHT22;11762;59.878;17.686;2023-03-16T17:47:45;-0.40;99.90
23188;DHT22;11762;59.878;17.686;2023-03-16T17:50:18;-0.50;99.90
23188;DHT22;11762;59.878;17.686;2023-03-16T17:52:46;-0.50;99.90
23188;DHT22;11762;59.878;17.686;2023-03-16T17:55:13;-0.60;99.90
23188;DHT22;11762;59.878;17.686;2023-03-16T17:57:47;-0.60;99.90
23188;DHT22;11762;59.878;17.686;2023-03-16T18:00:21;-0.60;99.90
23188;DHT22;11762;59.878;17.686;2023-03-16T18:02:50;-0.70;99.90
23188;DHT22;11762;59.878;17.686;2023-03-16T18:05:20;-0.70;99.90
23188;DHT22;11762;59.878;17.686;2023-03-16T18:07:48;-0.70;99.90
23188;DHT22;11762;59.878;17.686;2023-03-16T18:10:17;-0.70;99.90
23188;DHT22;11762;59.878;17.686;2023-03-16T18:12:48;-0.80;99.90
23188;DHT22;11762;59.878;17.686;2023-03-16T18:15:20;-0.80;99.90
23188;DHT22;11762;59.878;17.686;2023-03-16T18:17:48;-0.80;99.90
23188;DHT22;11762;59.878;17.686;2023-03-16T18:20:23;-0.90;99.90
23188;DHT22;11762;59.878;17.686;2023-03-16T18:22:53;-0.90;99.90
23188;DHT22;11762;59.878;17.686;2023-03-16T18:25:32;-1.10;99.90
23188;DHT22;11762;59.878;17.686;2023-03-16T18:28:01;-1.20;99.90
23188;DHT22;11762;59.878;17.686;2023-03-16T18:30:28;-1.30;99.90
23188;DHT22;11762;59.878;17.686;2023-03-16T18:32:56;-1.30;99.90
23188;DHT22;11762;59.878;17.686;2023-03-16T18:35:24;-1.40;99.90
23188;DHT22;11762;59.878;17.686;2023-03-16T18:37:52;-1.40;99.90
23188;DHT22;11762;59.878;17.686;2023-03-16T18:40:21;-1.50;99.90
23188;DHT22;11762;59.878;17.686;2023-03-16T18:42:49;-1.50;99.90
23188;DHT22;11762;59.878;17.686;2023-03-16T18:45:20;-1.60;99.90
23188;DHT22;11762;59.878;17.686;2023-03-16T18:47:51;-1.50;99.90
23188;DHT22;11762;59.878;17.686;2023-03-16T18:50:22;-1.60;99.90
23188;DHT22;11762;59.878;17.686;2023-03-16T18:52:51;-1.60;99.90
23188;DHT22;11762;59.878;17.686;2023-03-16T18:55:20;-1.60;99.90
23188;DHT22;11762;59.878;17.686;2023-03-16T18:57:49;-1.60;99.90
23188;DHT22;11762;59.878;17.686;2023-03-16T19:00:22;-1.70;99.90
23188;DHT22;11762;59.878;17.686;2023-03-16T19:02:57;-1.80;99.90
23188;DHT22;11762;59.878;17.686;2023-03-16T19:05:30;-1.80;99.90
23188;DHT22;11762;59.878;17.686;2023-03-16T19:08:00;-1.90;99.90
23188;DHT22;11762;59.878;17.686;2023-03-16T19:10:30;-1.90;99.90
23188;DHT22;11762;59.878;17.686;2023-03-16T19:12:58;-1.90;99.90
23188;DHT22;11762;59.878;17.686;2023-03-16T19:15:28;-1.90;99.90
23188;DHT22;11762;59.878;17.686;2023-03-16T19:17:56;-1.90;99.90
23188;DHT22;11762;59.878;17.686;2023-03-16T19:20:25;-2.00;99.90
23188;DHT22;11762;59.878;17.686;2023-03-16T19:22:59;-2.00;99.90
23188;DHT22;11762;59.878;17.686;2023-03-16T19:25:29;-2.00;99.90
23188;DHT22;11762;59.878;17.686;2023-03-16T19:27:58;-2.00;99.90
23188;DHT22;11762;59.878;17.686;2023-03-16T19:30:28;-2.00;99.90
23188;DHT22;11762;59.878;17.686;2023-03-16T19:32:57;-2.00;99.90
23188;DHT22;11762;59.878;17.686;2023-03-16T19:35:26;-2.00;99.90
23188;DHT22;11762;59.878;17.686;2023-03-16T19:37:53;-2.00;99.90
23188;DHT22;11762;59.878;17.686;2023-03-16T19:40:23;-2.00;99.90
23188;DHT22;11762;59.878;17.686;2023-03-16T19:42:51;-2.00;99.90
23188;DHT22;11762;59.878;17.686;2023-03-16T19:45:21;-2.10;99.90
23188;DHT22;11762;59.878;17.686;2023-03-16T19:47:50;-2.10;99.90
23188;DHT22;11762;59.878;17.686;2023-03-16T19:50:19;-2.10;99.90
23188;DHT22;11762;59.878;17.686;2023-03-16T19:52:47;-2.10;99.90
23188;DHT22;11762;59.878;17.686;2023-03-16T19:55:19;-2.10;99.90
23188;DHT22;11762;59.878;17.686;2023-03-16T19:57:48;-2.10;99.90
23188;DHT22;11762;59.878;17.686;2023-03-16T20:00:21;-2.00;99.90
23188;DHT22;11762;59.878;17.686;2023-03-16T20:02:52;-2.00;99.90
23188;DHT22;11762;59.878;17.686;2023-03-16T20:05:23;-2.00;99.90
23188;DHT22;11762;59.878;17.686;2023-03-16T20:07:51;-2.00;99.90
23188;DHT22;11762;59.878;17.686;2023-03-16T20:10:20;-2.10;99.90
23188;DHT22;11762;59.878;17.686;2023-03-16T20:12:51;-2.00;99.90
23188;DHT22;11762;59.878;17.686;2023-03-16T20:15:20;-2.00;99.90
23188;DHT22;11762;59.878;17.686;2023-03-16T20:17:48;-2.00;99.90
23188;DHT22;11762;59.878;17.686;2023-03-16T20:20:23;-2.00;99.90
23188;DHT22;11762;59.878;17.686;2023-03-16T20:22:50;-1.90;99.90
23188;DHT22;11762;59.878;17.686;2023-03-16T20:25:20;-1.90;99.90
23188;DHT22;11762;59.878;17.686;2023-03-16T20:27:52;-1.90;99.90
23188;DHT22;11762;59.878;17.686;2023-03-16T20:30:21;-1.90;99.90
23188;DHT22;11762;59.878;17.686;2023-03-16T20:32:48;-1.90;99.90
23188;DHT22;11762;59.878;17.686;2023-03-16T20:35:18;-1.90;99.90
23188;DHT22;11762;59.878;17.686;2023-03-16T20:37:47;-1.90;99.90
23188;DHT22;11762;59.878;17.686;2023-03-16T20:40:15;-1.90;99.90
23188;DHT22;11762;59.878;17.686;2023-03-16T20:42:42;-1.90;99.90
23188;DHT22;11762;59.878;17.686;2023-03-16T20:45:15;-1.90;99.90
23188;DHT22;11762;59.878;17.686;2023-03-16T20:47:43;-1.90;99.90
23188;DHT22;11762;59.878;17.686;2023-03-16T20:50:17;-2.00;99.90
23188;DHT22;11762;59.878;17.686;2023-03-16T20:52:46;-2.10;99.90
23188;DHT22;11762;59.878;17.686;2023-03-16T20:55:15;-2.20;99.90
23188;DHT22;11762;59.878;17.686;2023-03-16T20:57:43;-2.30;99.90
23188;DHT22;11762;59.878;17.686;2023-03-16T21:00:26;-2.30;99.90
23188;DHT22;11762;59.878;17.686;2023-03-16T21:02:55;-2.30;99.90
23188;DHT22;11762;59.878;17.686;2023-03-16T21:05:23;-2.30;99.90
23188;DHT22;11762;59.878;17.686;2023-03-16T21:07:52;-2.30;99.90
23188;DHT22;11762;59.878;17.686;2023-03-16T21:10:20;-2.30;99.90
23188;DHT22;11762;59.878;17.686;2023-03-16T21:12:51;-2.30;99.90
23188;DHT22;11762;59.878;17.686;2023-03-16T21:15:22;-2.30;99.90
23188;DHT22;11762;59.878;17.686;2023-03-16T21:17:57;-2.30;99.90
23188;DHT22;11762;59.878;17.686;2023-03-16T21:20:27;-2.30;99.90
23188;DHT22;11762;59.878;17.686;2023-03-16T21:22:56;-2.30;99.90
23188;DHT22;11762;59.878;17.686;2023-03-16T21:25:25;-2.30;99.90
23188;DHT22;11762;59.878;17.686;2023-03-16T21:27:55;-2.30;99.90
23188;DHT22;11762;59.878;17.686;2023-03-16T21:30:26;-2.30;99.90
23188;DHT22;11762;59.878;17.686;2023-03-16T21:32:55;-2.30;99.90